Time;durP1;ratioP1;P1;durP2;ratioP2;P2;SDS_P1;SDS_P2;PMS_P1;PMS_P2;Temp;Humidity;BMP_temperature;BMP_pressure;BME280_temperature;BME280_humidity;BME280_pressure;Samples;Min_cycle;Max_cycle;Signal;HPM_P1;HPM_P2
2023/08/08 00:00:28;;;;;;;;;;;;;;;11.76;100.00;95903.78;10512944;28;1869;-76
2023/08/08 00:05:31;;;;;;;;;;;;;;;11.91;100.00;95890.28;10509367;28;1936;-76
2023/08/08 00:10:38;;;;;;;;;;;;;;;12.00;100.00;95887.78;10528101;28;2297;-76
2023/08/08 00:15:41;;;;;;;;;;;;;;;12.10;100.00;95890.44;10522661;28;1991;-76
2023/08/08 00:20:45;;;;;;;;;;;;;;;12.20;100.00;95886.84;10509664;28;1854;-76
2023/08/08 00:25:51;;;;;;;;;;;;;;;12.21;100.00;95889.25;10519804;28;2137;-74
2023/08/08 00:30:54;;;;;;;;;;;;;;;12.25;100.00;95895.69;10521636;28;2018;-75
2023/08/08 00:36:00;;;;;;;;;;;;;;;12.27;100.00;95888.13;10523716;28;1916;-76
2023/08/08 00:41:05;;;;;;;;;;;;;;;12.29;100.00;95877.88;10510193;28;4560;-75
2023/08/08 00:46:08;;;;;;;;;;;;;;;12.28;100.00;95888.94;10508765;28;1908;-76
2023/08/08 00:51:13;;;;;;;;;;;;;;;12.29;100.00;95880.59;10517766;28;1907;-76
2023/08/08 00:56:19;;;;;;;;;;;;;;;12.23;100.00;95879.00;10524321;28;1892;-76
2023/08/08 01:01:23;;;;;;;;;;;;;;;12.15;100.00;95874.19;10520421;28;1857;-76
2023/08/08 01:06:26;;;;;;;;;;;;;;;12.15;100.00;95868.81;10500253;28;1907;-77
2023/08/08 01:11:31;;;;;;;;;;;;;;;12.17;100.00;95872.84;10497547;28;2263;-76
2023/08/08 01:16:38;;;;;;;;;;;;;;;12.16;100.00;95873.13;10524815;28;1879;-76
2023/08/08 01:21:46;;;;;;;;;;;;;;;12.16;100.00;95870.44;10505936;28;2092;-76
2023/08/08 01:26:51;;;;;;;;;;;;;;;12.07;100.00;95872.09;10503290;28;2052;-77
2023/08/08 01:31:56;;;;;;;;;;;;;;;12.02;100.00;95864.06;10503546;28;1921;-76
2023/08/08 01:37:01;;;;;;;;;;;;;;;11.90;100.00;95859.84;10494492;28;2111;-77
2023/08/08 01:42:05;;;;;;;;;;;;;;;11.77;100.00;95862.31;10520905;28;4608;-75
2023/08/08 01:47:10;;;;;;;;;;;;;;;11.59;100.00;95856.50;10520301;28;1929;-76
2023/08/08 01:52:16;;;;;;;;;;;;;;;11.47;100.00;95853.31;10500503;28;2026;-76
2023/08/08 01:57:22;;;;;;;;;;;;;;;11.26;100.00;95858.00;10522027;28;2063;-76
2023/08/08 02:07:46;;;;;;;;;;;;;;;11.23;100.00;95846.97;10525421;28;2375;-76
2023/08/08 02:12:50;;;;;;;;;;;;;;;11.18;100.00;95845.09;10517529;28;1910;-75
2023/08/08 02:17:57;;;;;;;;;;;;;;;11.10;100.00;95840.31;10520187;28;2000;-76
2023/08/08 02:23:14;;;;;;;;;;;;;;;11.03;100.00;95837.09;10522450;28;1822;-77
2023/08/08 02:28:19;;;;;;;;;;;;;;;10.98;100.00;95839.81;10523273;28;1979;-77
2023/08/08 02:33:22;;;;;;;;;;;;;;;10.98;100.00;95839.81;10500216;28;2048;-77
2023/08/08 02:38:28;;;;;;;;;;;;;;;10.94;100.00;95838.72;10503501;28;1985;-76
2023/08/08 02:43:33;;;;;;;;;;;;;;;10.93;100.00;95842.50;10503068;28;4628;-76
2023/08/08 02:48:36;;;;;;;;;;;;;;;10.89;100.00;95836.06;10519791;28;2127;-76
2023/08/08 02:53:42;;;;;;;;;;;;;;;10.85;100.00;95835.00;10518404;28;2072;-76
2023/08/08 02:58:48;;;;;;;;;;;;;;;10.85;100.00;95835.00;10496436;28;2232;-77
2023/08/08 03:03:55;;;;;;;;;;;;;;;10.80;100.00;95838.50;10512983;28;2318;-77
2023/08/08 03:09:01;;;;;;;;;;;;;;;10.83;100.00;95844.16;10525761;28;1864;-76
2023/08/08 03:14:06;;;;;;;;;;;;;;;10.92;100.00;95840.91;10517037;28;1930;-76
2023/08/08 03:19:12;;;;;;;;;;;;;;;11.08;100.00;95829.03;10496663;28;1904;-77
2023/08/08 03:29:50;;;;;;;;;;;;;;;11.34;100.00;95829.72;10527657;28;2039;-75
2023/08/08 03:34:53;;;;;;;;;;;;;;;11.41;100.00;95832.09;10530376;28;1917;-75
2023/08/08 03:40:07;;;;;;;;;;;;;;;11.37;100.00;95821.06;10510789;28;4593;-75
2023/08/08 03:45:21;;;;;;;;;;;;;;;11.54;100.00;95818.81;10522576;28;1554;-76
2023/08/08 03:50:26;;;;;;;;;;;;;;;11.60;100.00;95822.28;10535351;28;1901;-75
2023/08/08 03:55:31;;;;;;;;;;;;;;;11.65;100.00;95822.28;10529448;28;1691;-75
2023/08/08 04:00:36;;;;;;;;;;;;;;;11.62;100.00;95822.81;10531475;28;2480;-75
2023/08/08 04:05:40;;;;;;;;;;;;;;;11.68;100.00;95820.91;10505816;28;1498;-76
2023/08/08 04:10:43;;;;;;;;;;;;;;;11.76;100.00;95833.75;10527805;28;1975;-76
2023/08/08 04:21:08;;;;;;;;;;;;;;;11.81;100.00;95844.53;10525456;28;1821;-76
2023/08/08 04:26:15;;;;;;;;;;;;;;;11.92;100.00;95834.50;10530580;28;1862;-77
2023/08/08 04:31:25;;;;;;;;;;;;;;;11.96;100.00;95839.06;10523626;28;1972;-77
2023/08/08 04:36:30;;;;;;;;;;;;;;;12.02;100.00;95843.31;10518641;28;1434;-77
2023/08/08 04:41:41;;;;;;;;;;;;;;;12.13;100.00;95838.66;10525666;28;4777;-77
2023/08/08 04:46:45;;;;;;;;;;;;;;;12.18;100.00;95835.94;10536660;28;1525;-77
2023/08/08 04:51:48;;;;;;;;;;;;;;;12.35;100.00;95832.84;10537074;28;1914;-77
2023/08/08 04:56:51;;;;;;;;;;;;;;;12.50;100.00;95839.97;10530989;28;2476;-78
2023/08/08 05:01:55;;;;;;;;;;;;;;;12.61;100.00;95846.88;10505084;28;1866;-77
2023/08/08 05:07:06;;;;;;;;;;;;;;;12.73;100.00;95841.91;10531534;28;1524;-77
2023/08/08 05:12:19;;;;;;;;;;;;;;;12.92;100.00;95842.78;10543027;28;1914;-77
2023/08/08 05:17:26;;;;;;;;;;;;;;;13.07;100.00;95846.41;10537734;28;1476;-77
2023/08/08 05:22:31;;;;;;;;;;;;;;;13.25;100.00;95837.59;10531533;28;1549;-74
2023/08/08 05:27:39;;;;;;;;;;;;;;;13.38;100.00;95826.06;10530850;28;1440;-75
2023/08/08 05:33:04;;;;;;;;;;;;;;;13.45;100.00;95826.53;10536589;28;1910;-79
2023/08/08 05:38:24;;;;;;;;;;;;;;;13.73;100.00;95822.06;10530748;28;1818;-78
2023/08/08 05:43:29;;;;;;;;;;;;;;;13.97;100.00;95821.19;10532354;28;4538;-77
2023/08/08 05:48:36;;;;;;;;;;;;;;;14.11;100.00;95813.13;10531662;28;2452;-78
2023/08/08 05:53:40;;;;;;;;;;;;;;;14.39;100.00;95819.47;10528985;28;1972;-78
2023/08/08 05:58:46;;;;;;;;;;;;;;;14.54;100.00;95822.72;10531187;28;1816;-74
2023/08/08 06:04:03;;;;;;;;;;;;;;;15.08;100.00;95826.63;10535949;28;1501;-78
2023/08/08 06:09:10;;;;;;;;;;;;;;;15.79;100.00;95821.63;10534041;28;1679;-79
2023/08/08 06:14:16;;;;;;;;;;;;;;;16.14;100.00;95817.28;10532264;28;1962;-79
2023/08/08 06:19:21;;;;;;;;;;;;;;;16.24;100.00;95826.31;10530871;28;1671;-79
2023/08/08 06:24:32;;;;;;;;;;;;;;;16.59;100.00;95819.19;10527302;28;1488;-79
2023/08/08 06:29:37;;;;;;;;;;;;;;;16.96;100.00;95824.19;10509100;28;1474;-80
2023/08/08 06:40:07;;;;;;;;;;;;;;;16.84;100.00;95817.75;10533617;28;4609;-77
2023/08/08 06:45:10;;;;;;;;;;;;;;;17.03;100.00;95826.47;10533468;28;2308;-77
2023/08/08 06:50:20;;;;;;;;;;;;;;;17.18;100.00;95823.34;10529493;28;1521;-78
2023/08/08 06:55:26;;;;;;;;;;;;;;;17.68;100.00;95817.53;10529343;28;1972;-78
2023/08/08 07:00:30;;;;;;;;;;;;;;;17.71;100.00;95814.22;10531205;28;1482;-77
2023/08/08 07:05:33;;;;;;;;;;;;;;;17.64;100.00;95808.44;10528071;28;1805;-77
2023/08/08 07:10:41;;;;;;;;;;;;;;;17.92;100.00;95817.13;10530542;28;1478;-76
2023/08/08 07:15:53;;;;;;;;;;;;;;;18.43;100.00;95807.31;10527853;28;2014;-75
2023/08/08 07:21:00;;;;;;;;;;;;;;;18.44;100.00;95805.41;10524045;28;1501;-76
2023/08/08 07:26:28;;;;;;;;;;;;;;;17.89;100.00;95809.59;10527683;28;1505;-77
2023/08/08 07:31:37;;;;;;;;;;;;;;;18.15;100.00;95812.31;10492863;28;1972;-77
2023/08/08 07:36:42;;;;;;;;;;;;;;;18.10;100.00;95799.69;10525580;28;1445;-78
2023/08/08 07:41:46;;;;;;;;;;;;;;;18.74;100.00;95800.91;10501779;28;4574;-76
2023/08/08 07:46:56;;;;;;;;;;;;;;;18.78;100.00;95797.19;10528499;28;1462;-76
2023/08/08 07:52:02;;;;;;;;;;;;;;;18.90;100.00;95794.59;10527963;28;1992;-76
2023/08/08 07:57:07;;;;;;;;;;;;;;;18.98;100.00;95784.00;10524456;28;1565;-76
2023/08/08 08:02:20;;;;;;;;;;;;;;;19.23;100.00;95785.81;10510478;28;1474;-76
2023/08/08 08:07:24;;;;;;;;;;;;;;;18.93;100.00;95776.00;10501443;28;1582;-76
2023/08/08 08:12:27;;;;;;;;;;;;;;;19.17;100.00;95770.78;10530052;28;1910;-76
2023/08/08 08:17:32;;;;;;;;;;;;;;;19.13;100.00;95767.88;10511668;28;1603;-76
2023/08/08 08:22:35;;;;;;;;;;;;;;;19.41;100.00;95773.69;10535802;28;1492;-76
2023/08/08 08:27:48;;;;;;;;;;;;;;;19.52;100.00;95765.09;10525866;28;1684;-77
2023/08/08 08:32:52;;;;;;;;;;;;;;;19.67;100.00;95761.84;10537121;28;1910;-76
2023/08/08 08:37:57;;;;;;;;;;;;;;;20.34;100.00;95751.78;10534184;28;1603;-76
2023/08/08 08:43:11;;;;;;;;;;;;;;;20.61;96.68;95745.75;10522094;28;1495;-75
2023/08/08 08:48:15;;;;;;;;;;;;;;;20.39;90.83;95744.19;10516725;28;1534;-75
2023/08/08 08:53:22;;;;;;;;;;;;;;;20.12;95.62;95731.94;10526492;28;1951;-76
2023/08/08 08:58:27;;;;;;;;;;;;;;;19.91;94.02;95733.88;10530821;28;1653;-75
2023/08/08 09:03:34;;;;;;;;;;;;;;;19.84;99.14;95739.88;10533657;28;1470;-75
2023/08/08 09:08:41;;;;;;;;;;;;;;;20.41;93.86;95730.19;10532277;28;1492;-75
2023/08/08 09:13:48;;;;;;;;;;;;;;;20.49;86.86;95726.63;10533447;28;1977;-74
2023/08/08 09:18:54;;;;;;;;;;;;;;;19.99;89.88;95724.84;10533307;28;1807;-74
2023/08/08 09:23:59;;;;;;;;;;;;;;;19.84;90.82;95730.88;10530326;28;1475;-75
2023/08/08 09:29:08;;;;;;;;;;;;;;;20.44;91.00;95730.34;10519566;28;1388;-75
2023/08/08 09:34:16;;;;;;;;;;;;;;;20.32;90.96;95730.31;10532939;28;2380;-74
2023/08/08 09:39:23;;;;;;;;;;;;;;;21.16;83.22;95717.09;10531300;28;1576;-75
2023/08/08 09:44:29;;;;;;;;;;;;;;;21.73;83.60;95718.06;10536087;28;4518;-75
2023/08/08 09:49:36;;;;;;;;;;;;;;;21.86;83.14;95714.16;10514320;28;1471;-76
2023/08/08 09:54:46;;;;;;;;;;;;;;;22.29;81.11;95701.69;10532820;28;1894;-76
2023/08/08 09:59:51;;;;;;;;;;;;;;;21.76;82.11;95695.50;10528481;28;1540;-75
2023/08/08 10:05:02;;;;;;;;;;;;;;;21.23;81.11;95713.81;10532807;28;1352;-75
2023/08/08 10:10:10;;;;;;;;;;;;;;;21.04;78.31;95698.78;10514923;28;1502;-75
2023/08/08 10:15:16;;;;;;;;;;;;;;;21.82;76.17;95694.09;10532085;28;1977;-75
2023/08/08 10:20:25;;;;;;;;;;;;;;;21.47;77.24;95700.13;10526734;28;1429;-75
2023/08/08 10:25:30;;;;;;;;;;;;;;;22.00;77.42;95697.34;10531611;28;1390;-76
2023/08/08 10:30:36;;;;;;;;;;;;;;;22.09;73.71;95689.81;10527872;28;2467;-75
2023/08/08 10:35:41;;;;;;;;;;;;;;;22.21;71.65;95694.44;10528851;28;1914;-75
2023/08/08 10:40:51;;;;;;;;;;;;;;;22.29;65.61;95696.22;10526462;28;4553;-75
2023/08/08 10:45:59;;;;;;;;;;;;;;;21.82;66.79;95699.56;10532872;28;1480;-75
2023/08/08 10:51:15;;;;;;;;;;;;;;;22.35;68.28;95683.88;10532493;28;1544;-75
2023/08/08 10:56:22;;;;;;;;;;;;;;;22.61;62.74;95675.94;10534946;28;1914;-76
2023/08/08 11:01:26;;;;;;;;;;;;;;;22.53;63.09;95673.38;10496346;28;1580;-76
2023/08/08 11:06:31;;;;;;;;;;;;;;;22.57;62.59;95686.00;10529039;28;1639;-75
2023/08/08 11:11:38;;;;;;;;;;;;;;;22.73;62.09;95671.53;10511536;28;1521;-75
2023/08/08 11:16:43;;;;;;;;;;;;;;;23.23;57.41;95670.00;10531174;28;1918;-75
2023/08/08 11:21:46;;;;;;;;;;;;;;;22.52;57.20;95669.03;10529175;28;1359;-76
2023/08/08 11:26:51;;;;;;;;;;;;;;;22.62;60.25;95663.03;10507822;28;2195;-76
2023/08/08 11:31:54;;;;;;;;;;;;;;;22.54;63.67;95658.53;10525821;28;1726;-75
2023/08/08 11:36:58;;;;;;;;;;;;;;;22.76;59.57;95655.16;10529871;28;1980;-75
2023/08/08 11:42:08;;;;;;;;;;;;;;;22.92;56.43;95652.44;10523352;28;4533;-75
2023/08/08 11:47:17;;;;;;;;;;;;;;;22.78;54.86;95652.88;10526049;28;1465;-75
2023/08/08 11:52:20;;;;;;;;;;;;;;;21.88;60.58;95637.97;10529849;28;1993;-75
2023/08/08 12:02:47;;;;;;;;;;;;;;;21.98;56.86;95636.69;10534471;28;2178;-77
2023/08/08 12:07:50;;;;;;;;;;;;;;;22.19;52.77;95639.22;10534701;28;1750;-77
2023/08/08 12:13:07;;;;;;;;;;;;;;;22.18;54.94;95634.91;10539658;28;1926;-76
2023/08/08 12:18:11;;;;;;;;;;;;;;;23.10;54.86;95625.44;10517764;28;1534;-74
2023/08/08 12:23:26;;;;;;;;;;;;;;;23.31;49.72;95614.16;10535679;28;2147;-75
2023/08/08 12:28:38;;;;;;;;;;;;;;;23.19;49.34;95617.81;10524461;28;2131;-75
2023/08/08 12:33:48;;;;;;;;;;;;;;;22.75;47.37;95619.91;10525764;28;2134;-76
2023/08/08 12:38:58;;;;;;;;;;;;;;;22.74;54.02;95623.78;10525130;28;1941;-75
2023/08/08 12:44:05;;;;;;;;;;;;;;;23.35;50.08;95620.50;10523543;28;4533;-75
2023/08/08 12:49:08;;;;;;;;;;;;;;;23.70;48.90;95610.28;10529469;28;2169;-74
2023/08/08 12:54:12;;;;;;;;;;;;;;;23.62;46.91;95618.75;10526462;28;1980;-75
2023/08/08 12:59:16;;;;;;;;;;;;;;;23.10;48.67;95614.47;10504225;28;2083;-74
2023/08/08 13:04:33;;;;;;;;;;;;;;;23.35;48.62;95615.81;10522356;28;2028;-75
2023/08/08 13:09:37;;;;;;;;;;;;;;;23.66;48.91;95592.16;10517622;28;1890;-75
2023/08/08 13:14:41;;;;;;;;;;;;;;;23.08;51.10;95614.81;10510797;28;1953;-77
2023/08/08 13:19:49;;;;;;;;;;;;;;;22.58;50.91;95610.88;10510112;28;2372;-75
2023/08/08 13:24:53;;;;;;;;;;;;;;;23.28;50.36;95606.63;10524114;28;1904;-76
2023/08/08 13:30:03;;;;;;;;;;;;;;;22.67;50.33;95608.78;10521794;28;2052;-76
2023/08/08 13:35:09;;;;;;;;;;;;;;;22.46;51.88;95599.22;10507295;28;1985;-73
2023/08/08 13:40:26;;;;;;;;;;;;;;;22.57;53.68;95590.13;10510030;28;4617;-75
2023/08/08 13:45:30;;;;;;;;;;;;;;;22.74;54.03;95585.44;10503977;28;1906;-75
2023/08/08 13:50:40;;;;;;;;;;;;;;;22.90;54.17;95592.50;10506642;28;1892;-75
2023/08/08 13:55:47;;;;;;;;;;;;;;;23.06;54.96;95597.16;10503563;28;1921;-76
2023/08/08 14:00:51;;;;;;;;;;;;;;;22.61;51.83;95577.31;10525129;28;1873;-75
2023/08/08 14:05:58;;;;;;;;;;;;;;;22.71;49.49;95597.09;10514005;28;1858;-75
2023/08/08 14:11:07;;;;;;;;;;;;;;;22.81;51.32;95586.38;10523173;28;2063;-76
2023/08/08 14:16:19;;;;;;;;;;;;;;;23.20;52.36;95573.56;10524231;28;2335;-76
2023/08/08 14:21:25;;;;;;;;;;;;;;;22.81;52.88;95580.09;10520035;28;1900;-74
2023/08/08 14:31:52;;;;;;;;;;;;;;;22.57;56.20;95573.69;10519538;28;1869;-75
2023/08/08 14:37:03;;;;;;;;;;;;;;;22.92;55.23;95568.28;10524648;28;1983;-76
2023/08/08 14:42:08;;;;;;;;;;;;;;;23.17;55.52;95574.31;10514153;28;4744;-76
2023/08/08 14:47:27;;;;;;;;;;;;;;;23.30;55.70;95565.94;10517794;28;2001;-75
2023/08/08 14:52:33;;;;;;;;;;;;;;;23.35;56.43;95579.34;10501369;28;1884;-75
2023/08/08 14:57:45;;;;;;;;;;;;;;;23.39;53.14;95566.50;10507603;28;1902;-74
2023/08/08 15:02:49;;;;;;;;;;;;;;;23.44;53.48;95568.97;10500660;28;1923;-75
2023/08/08 15:07:54;;;;;;;;;;;;;;;23.54;54.69;95575.81;10521401;28;2011;-72
2023/08/08 15:12:59;;;;;;;;;;;;;;;23.54;54.07;95568.41;10522626;28;2293;-76
2023/08/08 15:18:09;;;;;;;;;;;;;;;23.35;55.60;95571.94;10518265;28;1869;-73
2023/08/08 15:23:13;;;;;;;;;;;;;;;23.30;53.88;95574.16;10529408;28;2087;-75
2023/08/08 15:28:20;;;;;;;;;;;;;;;23.25;56.38;95574.44;10505155;28;1902;-75
2023/08/08 15:33:24;;;;;;;;;;;;;;;22.51;57.32;95575.09;10521765;28;2000;-74
2023/08/08 15:38:29;;;;;;;;;;;;;;;22.79;57.25;95571.47;10519878;28;1942;-75
2023/08/08 15:43:46;;;;;;;;;;;;;;;22.73;56.99;95570.16;10509730;28;1896;-77
2023/08/08 15:48:49;;;;;;;;;;;;;;;22.40;59.42;95571.34;10525084;28;2207;-78
2023/08/08 15:53:53;;;;;;;;;;;;;;;22.29;63.18;95581.22;10515044;28;2103;-77
2023/08/08 15:59:00;;;;;;;;;;;;;;;22.45;62.28;95568.31;10513666;28;1951;-78
2023/08/08 16:04:06;;;;;;;;;;;;;;;22.02;63.48;95580.91;10520324;28;2130;-77
2023/08/08 16:09:13;;;;;;;;;;;;;;;22.01;64.27;95570.28;10515149;28;2387;-80
2023/08/08 16:14:18;;;;;;;;;;;;;;;21.91;62.37;95560.69;10502228;28;1985;-79
2023/08/08 16:19:25;;;;;;;;;;;;;;;21.74;64.86;95578.19;10514587;28;2036;-79
2023/08/08 16:24:33;;;;;;;;;;;;;;;21.59;66.56;95582.50;10509027;28;1885;-81
2023/08/08 16:29:39;;;;;;;;;;;;;;;21.33;70.33;95571.22;10520241;28;1968;-80
2023/08/08 16:34:45;;;;;;;;;;;;;;;21.27;71.01;95570.63;10504415;28;1918;-80
2023/08/08 16:39:49;;;;;;;;;;;;;;;21.07;73.64;95573.53;10488310;28;4541;-80
2023/08/08 16:44:54;;;;;;;;;;;;;;;20.98;75.17;95584.59;10521536;28;1880;-80
2023/08/08 16:50:12;;;;;;;;;;;;;;;21.02;76.13;95590.97;10528520;28;1918;-80
2023/08/08 16:55:17;;;;;;;;;;;;;;;20.78;79.47;95597.25;10505096;28;1926;-80
2023/08/08 17:00:21;;;;;;;;;;;;;;;21.35;78.32;95593.53;10524574;28;1849;-76
2023/08/08 17:05:26;;;;;;;;;;;;;;;21.45;78.04;95584.84;10520374;28;2479;-77
2023/08/08 17:10:29;;;;;;;;;;;;;;;21.24;80.21;95595.91;10518918;28;1839;-77
2023/08/08 17:15:33;;;;;;;;;;;;;;;20.92;80.75;95597.69;10510208;28;1972;-76
2023/08/08 17:20:37;;;;;;;;;;;;;;;20.63;84.68;95603.41;10529965;28;1885;-77
2023/08/08 17:25:41;;;;;;;;;;;;;;;20.34;86.33;95602.44;10503104;28;1862;-75
2023/08/08 17:30:45;;;;;;;;;;;;;;;20.26;87.25;95606.09;10519324;28;1904;-75
2023/08/08 17:35:52;;;;;;;;;;;;;;;19.94;91.28;95611.25;10529074;28;1930;-76
2023/08/08 17:41:00;;;;;;;;;;;;;;;19.81;91.20;95612.34;10525460;28;4525;-76
2023/08/08 17:46:03;;;;;;;;;;;;;;;19.73;93.15;95617.91;10521350;28;1841;-76
2023/08/08 17:51:11;;;;;;;;;;;;;;;19.57;94.74;95618.47;10527310;28;1878;-77
2023/08/08 17:56:17;;;;;;;;;;;;;;;19.31;97.20;95632.34;10517407;28;2007;-77
2023/08/08 18:01:20;;;;;;;;;;;;;;;19.01;100.00;95636.22;10512188;28;2567;-74
2023/08/08 18:06:28;;;;;;;;;;;;;;;18.84;100.00;95642.59;10529357;28;1878;-76
2023/08/08 18:11:37;;;;;;;;;;;;;;;18.61;100.00;95637.38;10528727;28;2009;-76
2023/08/08 18:16:43;;;;;;;;;;;;;;;18.45;100.00;95635.53;10527453;28;1936;-76
2023/08/08 18:21:47;;;;;;;;;;;;;;;18.28;100.00;95637.22;10524945;28;1851;-74
2023/08/08 18:26:53;;;;;;;;;;;;;;;18.08;100.00;95640.66;10526107;28;2016;-74
2023/08/08 18:31:58;;;;;;;;;;;;;;;18.07;100.00;95644.50;10500879;28;1890;-75
2023/08/08 18:37:05;;;;;;;;;;;;;;;18.07;100.00;95644.50;10514831;28;1989;-75
2023/08/08 18:42:11;;;;;;;;;;;;;;;18.11;100.00;95648.16;10523625;28;4537;-75
2023/08/08 18:47:15;;;;;;;;;;;;;;;17.98;100.00;95654.59;10522352;28;1972;-75
2023/08/08 18:52:20;;;;;;;;;;;;;;;17.77;100.00;95663.41;10517392;28;2032;-75
2023/08/08 18:57:25;;;;;;;;;;;;;;;17.55;100.00;95664.34;10523168;28;2269;-75
2023/08/08 19:02:30;;;;;;;;;;;;;;;17.34;100.00;95674.25;10516565;28;2029;-75
2023/08/08 19:07:37;;;;;;;;;;;;;;;17.16;100.00;95681.59;10521243;28;1905;-75
2023/08/08 19:12:43;;;;;;;;;;;;;;;17.10;100.00;95685.56;10522280;28;2186;-76
2023/08/08 19:17:47;;;;;;;;;;;;;;;17.02;100.00;95680.94;10534713;28;1971;-76
2023/08/08 19:23:02;;;;;;;;;;;;;;;17.08;100.00;95676.97;10502289;28;2024;-76
2023/08/08 19:28:08;;;;;;;;;;;;;;;17.10;100.00;95685.56;10525175;28;1793;-77
2023/08/08 19:33:12;;;;;;;;;;;;;;;17.10;100.00;95688.28;10528158;28;1521;-76
2023/08/08 19:38:24;;;;;;;;;;;;;;;17.12;100.00;95694.22;10522462;28;1977;-78
2023/08/08 19:43:27;;;;;;;;;;;;;;;17.20;100.00;95701.59;10503394;28;1778;-74
2023/08/08 19:48:32;;;;;;;;;;;;;;;17.28;100.00;95700.78;10503638;28;1632;-75
2023/08/08 19:53:37;;;;;;;;;;;;;;;17.36;100.00;95698.41;10527341;28;2392;-75
2023/08/08 19:58:45;;;;;;;;;;;;;;;17.35;100.00;95688.66;10506935;28;1909;-76
2023/08/08 20:03:49;;;;;;;;;;;;;;;17.39;100.00;95690.41;10527649;28;1583;-75
2023/08/08 20:08:54;;;;;;;;;;;;;;;17.37;100.00;95679.09;10526065;28;1731;-75
2023/08/08 20:13:58;;;;;;;;;;;;;;;17.23;100.00;95679.19;10532119;28;1594;-77
2023/08/08 20:19:01;;;;;;;;;;;;;;;17.09;100.00;95683.19;10542553;28;1909;-75
2023/08/08 20:24:12;;;;;;;;;;;;;;;16.91;100.00;95694.00;10546769;28;1801;-76
2023/08/08 20:29:25;;;;;;;;;;;;;;;16.77;100.00;95689.81;10523870;28;1449;-75
2023/08/08 20:34:30;;;;;;;;;;;;;;;16.61;100.00;95684.78;10522578;28;1786;-76
2023/08/08 20:39:40;;;;;;;;;;;;;;;16.38;100.00;95678.63;10518465;28;1836;-75
2023/08/08 20:44:43;;;;;;;;;;;;;;;16.23;100.00;95684.47;10520568;28;4898;-76
2023/08/08 20:49:49;;;;;;;;;;;;;;;16.18;100.00;95693.53;10519197;28;2393;-76
2023/08/08 20:54:54;;;;;;;;;;;;;;;16.02;100.00;95692.31;10537177;28;1978;-76
2023/08/08 21:00:00;;;;;;;;;;;;;;;15.85;100.00;95689.50;10532205;28;1533;-76
2023/08/08 21:05:05;;;;;;;;;;;;;;;15.67;100.00;95699.44;10535249;28;1493;-77
2023/08/08 21:10:11;;;;;;;;;;;;;;;15.46;100.00;95692.81;10530106;28;1759;-76
2023/08/08 21:15:14;;;;;;;;;;;;;;;15.34;100.00;95696.09;10534586;28;1902;-75
2023/08/08 21:20:21;;;;;;;;;;;;;;;15.30;100.00;95686.97;10531335;28;1837;-77
2023/08/08 21:25:32;;;;;;;;;;;;;;;15.22;100.00;95690.41;10528176;28;1633;-77
2023/08/08 21:30:43;;;;;;;;;;;;;;;15.19;100.00;95682.88;10532736;28;1500;-77
2023/08/08 21:35:49;;;;;;;;;;;;;;;15.16;100.00;95678.88;10533788;28;2052;-77
2023/08/08 21:40:57;;;;;;;;;;;;;;;15.18;100.00;95681.28;10529815;28;4576;-77
2023/08/08 21:46:15;;;;;;;;;;;;;;;15.20;100.00;95679.06;10513771;28;2622;-76
2023/08/08 21:51:19;;;;;;;;;;;;;;;15.12;100.00;95678.69;10528012;28;1497;-76
2023/08/08 21:56:25;;;;;;;;;;;;;;;15.08;100.00;95677.72;10524519;28;1902;-78
2023/08/08 22:01:37;;;;;;;;;;;;;;;15.07;100.00;95672.59;10515975;28;1499;-76
2023/08/08 22:06:49;;;;;;;;;;;;;;;15.05;100.00;95672.88;10524737;28;1509;-76
2023/08/08 22:11:59;;;;;;;;;;;;;;;15.02;100.00;95667.31;10534326;28;1516;-76
2023/08/08 22:17:04;;;;;;;;;;;;;;;14.95;100.00;95667.72;10531207;28;1973;-75
2023/08/08 22:22:08;;;;;;;;;;;;;;;14.82;100.00;95660.41;10530115;28;1446;-77
2023/08/08 22:27:11;;;;;;;;;;;;;;;14.75;100.00;95668.13;10507688;28;1518;-76
2023/08/08 22:32:17;;;;;;;;;;;;;;;14.69;100.00;95669.31;10516841;28;1824;-76
2023/08/08 22:37:24;;;;;;;;;;;;;;;14.59;100.00;95671.16;10507568;28;1952;-76
2023/08/08 22:42:30;;;;;;;;;;;;;;;14.55;100.00;95670.13;10529739;28;4756;-76
2023/08/08 22:47:33;;;;;;;;;;;;;;;14.49;100.00;95668.63;10531736;28;1739;-77
2023/08/08 22:52:39;;;;;;;;;;;;;;;14.60;100.00;95661.13;10531970;28;1533;-76
2023/08/08 22:57:46;;;;;;;;;;;;;;;14.75;100.00;95662.72;10522306;28;1910;-76
2023/08/08 23:02:51;;;;;;;;;;;;;;;14.88;100.00;95656.47;10528662;28;1850;-76
2023/08/08 23:07:55;;;;;;;;;;;;;;;14.94;100.00;95649.06;10527383;28;1809;-75
2023/08/08 23:13:01;;;;;;;;;;;;;;;14.96;100.00;95655.78;10541529;28;1465;-76
2023/08/08 23:18:07;;;;;;;;;;;;;;;15.00;100.00;95651.34;10516675;28;1913;-76
2023/08/08 23:23:15;;;;;;;;;;;;;;;15.08;100.00;95645.22;10526435;28;1585;-76
2023/08/08 23:28:22;;;;;;;;;;;;;;;14.97;100.00;95649.25;10531955;28;1560;-76
2023/08/08 23:33:27;;;;;;;;;;;;;;;14.94;100.00;95644.44;10538677;28;1499;-75
2023/08/08 23:38:30;;;;;;;;;;;;;;;14.80;100.00;95649.09;10510745;28;2361;-75
2023/08/08 23:43:39;;;;;;;;;;;;;;;14.71;100.00;95646.28;10525791;28;1754;-75
2023/08/08 23:48:48;;;;;;;;;;;;;;;14.64;100.00;95634.28;10531275;28;1689;-75
2023/08/08 23:53:52;;;;;;;;;;;;;;;14.57;100.00;95642.81;10502063;28;1548;-75
2023/08/08 23:58:56;;;;;;;;;;;;;;;14.63;100.00;95635.38;10530013;28;1905;-75
